Time;durP1;ratioP1;P1;durP2;ratioP2;P2;SDS_P1;SDS_P2;PMS_P1;PMS_P2;Temp;Humidity;BMP_temperature;BMP_pressure;BME280_temperature;BME280_humidity;BME280_pressure;Samples;Min_cycle;Max_cycle;Signal;HPM_P1;HPM_P2
2023/01/27 00:02:05;;;;;;;12.07;5.07;;;;;;;;;;5137635;27;20069;-74
2023/01/27 00:04:31;;;;;;;10.45;5.22;;;;;;;;;;5139305;27;20440;-74
2023/01/27 00:06:57;;;;;;;7.75;4.55;;;;;;;;;;5127178;27;20144;-76
2023/01/27 00:09:23;;;;;;;8.48;5.05;;;;;;;;;;5136642;27;20564;-78
2023/01/27 00:14:33;;;;;;;8.93;4.55;;;;;;;;;;5116516;27;20043;-76
2023/01/27 00:16:59;;;;;;;8.75;4.70;;;;;;;;;;5139930;27;20047;-77
2023/01/27 00:19:25;;;;;;;9.20;4.60;;;;;;;;;;5136027;27;20041;-74
2023/01/27 00:24:36;;;;;;;11.13;4.90;;;;;;;;;;5136449;27;20066;-73
2023/01/27 00:27:09;;;;;;;10.88;5.40;;;;;;;;;;5137577;27;20050;-74
2023/01/27 00:29:36;;;;;;;12.00;5.35;;;;;;;;;;5135520;27;20039;-76
2023/01/27 00:34:47;;;;;;;8.80;4.90;;;;;;;;;;5132548;27;20067;-73
2023/01/27 00:37:14;;;;;;;10.80;5.28;;;;;;;;;;5140667;27;20043;-76
2023/01/27 00:39:40;;;;;;;11.38;5.13;;;;;;;;;;5123223;27;20463;-75
2023/01/27 00:42:06;;;;;;;10.93;5.03;;;;;;;;;;5134238;27;20057;-73
2023/01/27 00:44:32;;;;;;;14.88;6.30;;;;;;;;;;5138492;27;20050;-73
2023/01/27 00:46:58;;;;;;;11.55;5.40;;;;;;;;;;5135065;27;20727;-76
2023/01/27 00:49:23;;;;;;;8.35;4.80;;;;;;;;;;5134496;27;20039;-78
2023/01/27 00:51:50;;;;;;;18.05;5.40;;;;;;;;;;5135928;27;20484;-74
2023/01/27 00:54:16;;;;;;;8.52;4.60;;;;;;;;;;5123572;27;20045;-73
2023/01/27 00:56:43;;;;;;;8.38;4.60;;;;;;;;;;5135427;27;20092;-75
2023/01/27 00:59:09;;;;;;;8.43;4.40;;;;;;;;;;5130756;27;20166;-74
2023/01/27 01:01:36;;;;;;;6.97;4.03;;;;;;;;;;5135861;27;20050;-73
2023/01/27 01:04:02;;;;;;;5.75;4.00;;;;;;;;;;5139111;27;20046;-73
2023/01/27 01:06:29;;;;;;;7.03;3.90;;;;;;;;;;5139798;27;20039;-75
2023/01/27 01:08:55;;;;;;;9.52;3.85;;;;;;;;;;5136626;27;20043;-73
2023/01/27 01:11:23;;;;;;;6.25;3.72;;;;;;;;;;5143303;27;20501;-75
2023/01/27 01:13:49;;;;;;;5.75;3.58;;;;;;;;;;5144640;27;20039;-73
2023/01/27 01:16:18;;;;;;;6.70;4.10;;;;;;;;;;5138944;27;20047;-76
2023/01/27 01:18:44;;;;;;;6.07;4.28;;;;;;;;;;5141737;27;20049;-77
2023/01/27 01:21:11;;;;;;;8.55;4.28;;;;;;;;;;5136905;27;20050;-73
2023/01/27 01:23:39;;;;;;;8.25;4.40;;;;;;;;;;5138077;27;20546;-75
2023/01/27 01:26:05;;;;;;;6.95;4.07;;;;;;;;;;5145916;27;20039;-75
2023/01/27 01:28:31;;;;;;;8.35;4.25;;;;;;;;;;5142401;27;20519;-77
2023/01/27 01:31:07;;;;;;;6.28;4.20;;;;;;;;;;5138183;27;20050;-75
2023/01/27 01:33:34;;;;;;;6.80;4.38;;;;;;;;;;5134284;27;20047;-75
2023/01/27 01:36:09;;;;;;;9.55;4.35;;;;;;;;;;5145516;27;20050;-75
2023/01/27 01:38:35;;;;;;;6.45;4.15;;;;;;;;;;5131539;27;20794;-76
2023/01/27 01:41:02;;;;;;;7.10;4.10;;;;;;;;;;5138706;27;20039;-77
2023/01/27 01:43:27;;;;;;;8.40;4.18;;;;;;;;;;5140309;27;20043;-74
2023/01/27 01:45:56;;;;;;;7.97;4.63;;;;;;;;;;5139062;27;20104;-75
2023/01/27 01:48:42;;;;;;;9.10;4.30;;;;;;;;;;5134679;27;20049;-75
2023/01/27 01:51:09;;;;;;;8.00;4.25;;;;;;;;;;5129839;27;21310;-77
2023/01/27 01:53:41;;;;;;;10.55;4.30;;;;;;;;;;5127625;27;20062;-76
2023/01/27 01:56:13;;;;;;;8.02;4.20;;;;;;;;;;5134534;27;20244;-75
2023/01/27 01:58:41;;;;;;;9.73;3.72;;;;;;;;;;5132644;27;20550;-77
2023/01/27 02:01:07;;;;;;;8.15;3.67;;;;;;;;;;5118709;27;20108;-73
2023/01/27 02:03:39;;;;;;;7.57;4.10;;;;;;;;;;5135318;27;20499;-73
2023/01/27 02:06:05;;;;;;;8.90;4.63;;;;;;;;;;5135896;27;20607;-74
2023/01/27 02:08:41;;;;;;;6.43;3.78;;;;;;;;;;5142652;27;20125;-74
2023/01/27 02:11:08;;;;;;;9.25;3.70;;;;;;;;;;5138749;27;20055;-75
2023/01/27 02:13:34;;;;;;;7.88;3.75;;;;;;;;;;5139133;27;20361;-74
2023/01/27 02:16:01;;;;;;;6.93;4.25;;;;;;;;;;5140783;27;20372;-78
2023/01/27 02:18:28;;;;;;;9.40;4.15;;;;;;;;;;5141875;27;20051;-74
2023/01/27 02:20:54;;;;;;;5.78;4.00;;;;;;;;;;5137500;27;20520;-73
2023/01/27 02:23:36;;;;;;;8.55;4.50;;;;;;;;;;5133634;27;20126;-77
2023/01/27 02:26:04;;;;;;;6.68;4.18;;;;;;;;;;5138668;27;20046;-76
2023/01/27 02:28:30;;;;;;;5.30;3.72;;;;;;;;;;5138302;27;20050;-75
2023/01/27 02:30:57;;;;;;;8.77;4.07;;;;;;;;;;5141483;27;20056;-75
2023/01/27 02:33:23;;;;;;;6.47;4.00;;;;;;;;;;5140620;27;20129;-74
2023/01/27 02:36:07;;;;;;;9.90;4.22;;;;;;;;;;5137494;27;20051;-73
2023/01/27 02:38:36;;;;;;;10.82;3.67;;;;;;;;;;5137372;27;20050;-75
2023/01/27 02:41:20;;;;;;;5.88;3.33;;;;;;;;;;5137049;27;20054;-76
2023/01/27 02:43:48;;;;;;;5.55;3.67;;;;;;;;;;5134644;27;20043;-77
2023/01/27 02:46:15;;;;;;;8.32;3.65;;;;;;;;;;5135577;27;20039;-73
2023/01/27 02:48:40;;;;;;;6.03;3.72;;;;;;;;;;5138719;27;20042;-74
2023/01/27 02:51:06;;;;;;;5.65;3.47;;;;;;;;;;5137917;27;20072;-75
2023/01/27 02:53:32;;;;;;;7.00;3.47;;;;;;;;;;5134047;27;20085;-74
2023/01/27 02:55:59;;;;;;;5.90;3.90;;;;;;;;;;5128775;27;20516;-76
2023/01/27 02:58:25;;;;;;;4.80;3.40;;;;;;;;;;5129487;27;20089;-77
2023/01/27 03:00:51;;;;;;;5.55;3.22;;;;;;;;;;5140064;22;20099;-79
2023/01/27 03:03:17;;;;;;;5.30;3.20;;;;;;;;;;5006140;28;20046;-73
2023/01/27 03:05:44;;;;;;;6.72;3.20;;;;;;;;;;5021731;28;20060;-73
2023/01/27 03:08:10;;;;;;;6.63;3.38;;;;;;;;;;5021387;28;20120;-74
2023/01/27 03:10:36;;;;;;;6.13;3.17;;;;;;;;;;5019659;28;20581;-77
2023/01/27 03:13:02;;;;;;;4.65;3.08;;;;;;;;;;5016545;28;20041;-75
2023/01/27 03:18:15;;;;;;;8.02;3.20;;;;;;;;;;5022197;28;20080;-74
2023/01/27 03:20:44;;;;;;;3.70;2.85;;;;;;;;;;5021516;28;20049;-75
2023/01/27 03:23:11;;;;;;;4.55;2.70;;;;;;;;;;5024107;28;20037;-73
2023/01/27 03:25:41;;;;;;;4.47;2.90;;;;;;;;;;5020001;28;20573;-75
2023/01/27 03:28:07;;;;;;;4.63;2.60;;;;;;;;;;5022939;28;20123;-75
2023/01/27 03:30:33;;;;;;;5.97;3.00;;;;;;;;;;5022281;28;20041;-73
2023/01/27 03:33:02;;;;;;;4.55;2.60;;;;;;;;;;5020314;28;20045;-72
2023/01/27 03:35:33;;;;;;;3.92;2.60;;;;;;;;;;5019489;28;20048;-73
2023/01/27 03:46:17;;;;;;;;;;;;;;;;;;5020608;28;20474;-75
2023/01/27 03:48:43;;;;;;;3.63;2.40;;;;;;;;;;5019454;28;19921;-75
2023/01/27 03:51:10;;;;;;;4.80;2.60;;;;;;;;;;5020641;28;20502;-71
2023/01/27 03:53:36;;;;;;;4.75;2.60;;;;;;;;;;5022067;28;20038;-78
2023/01/27 03:56:04;;;;;;;4.68;2.72;;;;;;;;;;5023277;28;20482;-74
2023/01/27 03:58:33;;;;;;;6.78;2.80;;;;;;;;;;5022737;28;20045;-74
2023/01/27 04:01:02;;;;;;;3.67;2.42;;;;;;;;;;5016582;28;20053;-71
2023/01/27 04:09:10;;;;;;;7.03;2.10;;;;;;;;;;5017451;28;20538;-75
2023/01/27 04:11:55;;;;;;;5.03;2.58;;;;;;;;;;5024038;28;20048;-73
2023/01/27 04:14:34;;;;;;;4.35;2.80;;;;;;;;;;5021423;28;20069;-75
2023/01/27 04:17:03;;;;;;;3.33;2.30;;;;;;;;;;5019097;28;20041;-80
2023/01/27 04:19:29;;;;;;;5.18;2.67;;;;;;;;;;5019195;28;20041;-73
2023/01/27 04:21:56;;;;;;;4.20;2.70;;;;;;;;;;5020103;28;20060;-75
2023/01/27 04:24:22;;;;;;;6.65;2.78;;;;;;;;;;5020386;28;20034;-78
2023/01/27 04:26:57;;;;;;;4.82;2.60;;;;;;;;;;5029248;28;20087;-72
2023/01/27 04:29:28;;;;;;;3.92;2.45;;;;;;;;;;5005902;28;20045;-77
2023/01/27 04:31:56;;;;;;;4.88;2.70;;;;;;;;;;5021824;28;20050;-74
2023/01/27 04:34:23;;;;;;;5.78;3.00;;;;;;;;;;5018403;28;20051;-77
2023/01/27 04:36:50;;;;;;;5.93;2.80;;;;;;;;;;5006903;28;20052;-76
2023/01/27 04:39:16;;;;;;;4.63;2.72;;;;;;;;;;5027788;28;20037;-75
2023/01/27 04:41:43;;;;;;;4.10;2.80;;;;;;;;;;5023413;28;20034;-78
2023/01/27 04:44:09;;;;;;;5.45;2.90;;;;;;;;;;5021113;28;20077;-77
2023/01/27 04:46:36;;;;;;;9.82;2.83;;;;;;;;;;5022203;28;20049;-71
2023/01/27 04:49:02;;;;;;;4.22;2.75;;;;;;;;;;5029812;28;20056;-80
2023/01/27 04:51:28;;;;;;;5.32;2.95;;;;;;;;;;5029857;28;20140;-76
2023/01/27 04:53:54;;;;;;;6.05;3.00;;;;;;;;;;5026437;28;20053;-77
2023/01/27 04:56:33;;;;;;;3.70;2.60;;;;;;;;;;5021631;28;20042;-76
2023/01/27 04:59:00;;;;;;;7.18;2.78;;;;;;;;;;5023781;28;20091;-74
2023/01/27 05:01:27;;;;;;;7.15;3.00;;;;;;;;;;5021745;28;20171;-75
2023/01/27 05:03:53;;;;;;;3.58;2.25;;;;;;;;;;5002006;28;20132;-74
2023/01/27 05:06:20;;;;;;;3.97;2.50;;;;;;;;;;5024184;28;20042;-78
2023/01/27 05:08:46;;;;;;;4.30;2.22;;;;;;;;;;5022671;28;20053;-74
2023/01/27 05:11:13;;;;;;;3.08;2.03;;;;;;;;;;5017528;28;20119;-74
2023/01/27 05:13:42;;;;;;;4.15;2.05;;;;;;;;;;5024889;28;20402;-77
2023/01/27 05:16:14;;;;;;;5.30;2.30;;;;;;;;;;5025863;28;20452;-74
2023/01/27 05:18:42;;;;;;;4.60;2.30;;;;;;;;;;5016851;28;20127;-71
2023/01/27 05:21:12;;;;;;;4.18;2.17;;;;;;;;;;5016651;28;20052;-76
2023/01/27 05:23:38;;;;;;;2.83;2.13;;;;;;;;;;5017923;28;20050;-78
2023/01/27 05:26:19;;;;;;;3.00;2.25;;;;;;;;;;5014338;28;20110;-80
2023/01/27 05:28:46;;;;;;;3.75;2.47;;;;;;;;;;4999446;28;20049;-74
2023/01/27 05:31:21;;;;;;;5.82;2.00;;;;;;;;;;5019382;28;20053;-75
2023/01/27 05:33:48;;;;;;;;;;;;;;;;;;5015282;28;20053;-79
2023/01/27 05:36:17;;;;;;;4.05;1.90;;;;;;;;;;5022946;28;19983;-78
2023/01/27 05:38:43;;;;;;;4.75;2.00;;;;;;;;;;5001680;28;20080;-73
2023/01/27 05:41:11;;;;;;;3.63;1.80;;;;;;;;;;5022548;28;20105;-76
2023/01/27 05:43:39;;;;;;;3.67;2.15;;;;;;;;;;5022752;28;20049;-76
2023/01/27 05:46:12;;;;;;;9.27;2.42;;;;;;;;;;5021287;28;20049;-76
2023/01/27 05:48:41;;;;;;;5.00;2.55;;;;;;;;;;5021288;28;20057;-73
2023/01/27 05:51:07;;;;;;;6.78;2.53;;;;;;;;;;5024349;28;20057;-75
2023/01/27 05:53:33;;;;;;;4.55;2.83;;;;;;;;;;5029480;28;20057;-76
2023/01/27 05:55:59;;;;;;;3.97;2.40;;;;;;;;;;5029718;28;20041;-78
2023/01/27 05:58:25;;;;;;;3.50;2.13;;;;;;;;;;5026966;28;20400;-76
2023/01/27 06:00:53;;;;;;;6.55;2.35;;;;;;;;;;5024918;28;20486;-75
2023/01/27 06:03:19;;;;;;;3.70;2.40;;;;;;;;;;5022788;28;20082;-75
2023/01/27 06:05:56;;;;;;;3.53;2.30;;;;;;;;;;5023195;28;20351;-79
2023/01/27 06:08:23;;;;;;;4.88;2.72;;;;;;;;;;5015226;28;20050;-76
2023/01/27 06:10:51;;;;;;;5.55;2.42;;;;;;;;;;5019209;28;20060;-76
2023/01/27 06:13:17;;;;;;;6.00;2.63;;;;;;;;;;5021133;28;20041;-73
2023/01/27 06:15:45;;;;;;;5.32;2.75;;;;;;;;;;5026039;28;20060;-76
2023/01/27 06:18:13;;;;;;;4.90;2.70;;;;;;;;;;5020081;28;20060;-76
2023/01/27 06:20:39;;;;;;;8.07;2.40;;;;;;;;;;5019319;28;20535;-75
2023/01/27 06:23:07;;;;;;;6.63;3.05;;;;;;;;;;5010767;28;20544;-74
2023/01/27 06:25:47;;;;;;;7.75;2.97;;;;;;;;;;5023646;28;20112;-73
2023/01/27 06:28:14;;;;;;;6.72;2.70;;;;;;;;;;5020453;28;20187;-71
2023/01/27 06:30:40;;;;;;;6.38;3.00;;;;;;;;;;5018907;28;20053;-75
2023/01/27 06:33:07;;;;;;;5.43;2.80;;;;;;;;;;5017208;28;20045;-72
2023/01/27 06:35:35;;;;;;;9.85;3.25;;;;;;;;;;5002156;28;20103;-73
2023/01/27 06:38:02;;;;;;;6.68;2.78;;;;;;;;;;5015750;28;20073;-74
2023/01/27 06:40:30;;;;;;;9.40;3.78;;;;;;;;;;5013585;28;20038;-74
2023/01/27 06:42:57;;;;;;;7.15;3.17;;;;;;;;;;5017565;28;20186;-78
2023/01/27 06:45:24;;;;;;;8.30;3.38;;;;;;;;;;5014887;28;20092;-75
2023/01/27 06:48:00;;;;;;;4.43;2.95;;;;;;;;;;5017843;28;20076;-78
2023/01/27 06:50:28;;;;;;;6.30;2.97;;;;;;;;;;5022690;28;20065;-73
2023/01/27 06:53:05;;;;;;;9.93;3.15;;;;;;;;;;5026771;28;20038;-75
2023/01/27 06:55:32;;;;;;;8.43;3.35;;;;;;;;;;5024367;28;20064;-78
2023/01/27 06:57:59;;;;;;;8.13;3.22;;;;;;;;;;5019937;28;20432;-75
2023/01/27 07:00:26;;;;;;;10.52;3.05;;;;;;;;;;5014356;28;20437;-76
2023/01/27 07:02:55;;;;;;;6.93;3.17;;;;;;;;;;5020183;28;20045;-74
2023/01/27 07:05:21;;;;;;;9.63;3.53;;;;;;;;;;5020425;28;20124;-78
2023/01/27 07:07:47;;;;;;;7.10;2.85;;;;;;;;;;4999017;28;20045;-73
2023/01/27 07:10:13;;;;;;;10.93;3.00;;;;;;;;;;5014666;28;20049;-75
2023/01/27 07:12:39;;;;;;;6.10;3.08;;;;;;;;;;5017961;28;20053;-74
2023/01/27 07:15:07;;;;;;;4.95;2.90;;;;;;;;;;5016179;28;20037;-73
2023/01/27 07:17:33;;;;;;;10.70;3.38;;;;;;;;;;5014066;28;20118;-73
2023/01/27 07:20:00;;;;;;;8.95;3.38;;;;;;;;;;5017856;28;20306;-76
2023/01/27 07:22:25;;;;;;;7.80;3.40;;;;;;;;;;5022863;28;20053;-75
2023/01/27 07:24:53;;;;;;;12.50;3.50;;;;;;;;;;5014678;28;20045;-71
2023/01/27 07:27:19;;;;;;;11.18;3.13;;;;;;;;;;5016571;28;20052;-76
2023/01/27 07:29:45;;;;;;;9.57;3.05;;;;;;;;;;5021527;28;20490;-77
2023/01/27 07:32:11;;;;;;;10.18;3.22;;;;;;;;;;5017005;28;20056;-67
2023/01/27 07:34:37;;;;;;;10.82;3.65;;;;;;;;;;5013298;28;20045;-71
2023/01/27 07:37:04;;;;;;;6.20;3.17;;;;;;;;;;5016560;28;20135;-71
2023/01/27 07:39:32;;;;;;;11.32;3.70;;;;;;;;;;5018854;28;20045;-70
2023/01/27 07:42:01;;;;;;;8.00;3.40;;;;;;;;;;5018427;28;20168;-71
2023/01/27 07:44:28;;;;;;;7.88;3.20;;;;;;;;;;5019880;28;20509;-70
2023/01/27 07:46:54;;;;;;;8.25;3.60;;;;;;;;;;5022635;28;20048;-70
2023/01/27 07:49:20;;;;;;;7.38;3.25;;;;;;;;;;5015415;28;20414;-72
2023/01/27 07:51:46;;;;;;;18.23;4.50;;;;;;;;;;5018084;28;20060;-67
2023/01/27 07:54:12;;;;;;;12.30;3.97;;;;;;;;;;5019657;28;20346;-74
2023/01/27 07:56:37;;;;;;;9.45;3.88;;;;;;;;;;5027988;28;20049;-73
2023/01/27 07:59:04;;;;;;;15.45;4.72;;;;;;;;;;5021411;28;20049;-71
2023/01/27 08:01:31;;;;;;;9.20;4.18;;;;;;;;;;5017394;28;20060;-74
2023/01/27 08:03:58;;;;;;;13.50;5.13;;;;;;;;;;5022508;28;20045;-75
2023/01/27 08:06:23;;;;;;;13.27;4.63;;;;;;;;;;5019089;28;20094;-73
2023/01/27 08:08:49;;;;;;;19.67;5.07;;;;;;;;;;5011726;28;20050;-70
2023/01/27 08:11:15;;;;;;;13.77;5.65;;;;;;;;;;5019928;28;20042;-69
2023/01/27 08:13:42;;;;;;;13.35;5.40;;;;;;;;;;5010748;28;20124;-72
2023/01/27 08:16:11;;;;;;;12.88;4.68;;;;;;;;;;5019669;28;20068;-70
2023/01/27 08:18:38;;;;;;;11.68;5.43;;;;;;;;;;4999167;28;20041;-69
2023/01/27 08:21:06;;;;;;;11.75;5.05;;;;;;;;;;5010974;28;20495;-70
2023/01/27 08:23:32;;;;;;;16.45;5.63;;;;;;;;;;5008971;28;20053;-67
2023/01/27 08:26:00;;;;;;;17.45;5.53;;;;;;;;;;4996312;28;20103;-72
2023/01/27 08:28:28;;;;;;;13.05;5.53;;;;;;;;;;4993945;28;20045;-73
2023/01/27 08:31:01;;;;;;;14.82;5.68;;;;;;;;;;5017721;28;20981;-72
2023/01/27 08:33:27;;;;;;;14.75;5.18;;;;;;;;;;5012767;28;20053;-72
2023/01/27 08:35:53;;;;;;;11.02;5.07;;;;;;;;;;5015561;28;20382;-72
2023/01/27 08:38:19;;;;;;;10.43;4.70;;;;;;;;;;5013143;28;20071;-73
2023/01/27 08:40:46;;;;;;;14.43;4.32;;;;;;;;;;5014974;28;20053;-72
2023/01/27 08:43:15;;;;;;;14.20;4.20;;;;;;;;;;5014240;28;20414;-73
2023/01/27 08:45:41;;;;;;;7.25;3.95;;;;;;;;;;5011408;28;20068;-73
2023/01/27 08:48:07;;;;;;;11.73;4.50;;;;;;;;;;5008600;28;20137;-72
2023/01/27 08:50:33;;;;;;;14.93;4.22;;;;;;;;;;5010035;28;20053;-74
2023/01/27 08:53:00;;;;;;;11.23;3.80;;;;;;;;;;5012828;28;20163;-73
2023/01/27 08:55:28;;;;;;;7.82;3.42;;;;;;;;;;5015577;28;20044;-74
2023/01/27 08:57:54;;;;;;;12.40;4.30;;;;;;;;;;5012710;28;20529;-72
2023/01/27 09:00:21;;;;;;;15.25;5.22;;;;;;;;;;5014695;28;20540;-71
2023/01/27 09:02:49;;;;;;;12.48;4.43;;;;;;;;;;5014610;28;20054;-71
2023/01/27 09:05:17;;;;;;;13.95;5.13;;;;;;;;;;5014794;28;20041;-73
2023/01/27 09:07:45;;;;;;;12.40;4.78;;;;;;;;;;5000247;28;20049;-72
2023/01/27 09:10:12;;;;;;;13.30;5.45;;;;;;;;;;5016050;28;20127;-72
2023/01/27 09:12:39;;;;;;;11.25;5.93;;;;;;;;;;5016677;28;20169;-74
2023/01/27 09:15:06;;;;;;;11.40;5.10;;;;;;;;;;5014532;28;20065;-74
2023/01/27 09:17:32;;;;;;;14.35;5.57;;;;;;;;;;5011315;28;20115;-74
2023/01/27 09:19:58;;;;;;;16.27;5.07;;;;;;;;;;5015201;28;20049;-73
2023/01/27 09:22:24;;;;;;;17.75;5.68;;;;;;;;;;5017923;28;20057;-73
2023/01/27 09:24:50;;;;;;;14.55;6.00;;;;;;;;;;5018143;28;20046;-74
2023/01/27 09:27:16;;;;;;;14.75;5.50;;;;;;;;;;5019683;28;20516;-73
2023/01/27 09:29:42;;;;;;;13.25;5.10;;;;;;;;;;5018160;28;20049;-73
2023/01/27 09:32:11;;;;;;;12.10;5.03;;;;;;;;;;5013155;28;20046;-72
2023/01/27 09:34:38;;;;;;;10.88;4.78;;;;;;;;;;5015816;28;20053;-74
2023/01/27 09:37:09;;;;;;;14.40;5.18;;;;;;;;;;5017292;28;20049;-71
2023/01/27 09:39:50;;;;;;;16.63;5.93;;;;;;;;;;5019570;28;20415;-73
2023/01/27 09:42:31;;;;;;;11.70;6.03;;;;;;;;;;5014526;28;20694;-72
2023/01/27 09:45:06;;;;;;;14.00;5.82;;;;;;;;;;5023343;28;20693;-72
2023/01/27 09:47:52;;;;;;;14.45;6.07;;;;;;;;;;5013403;28;20060;-73
2023/01/27 09:50:44;;;;;;;11.88;6.45;;;;;;;;;;5020798;28;20073;-72
2023/01/27 09:53:22;;;;;;;12.75;6.45;;;;;;;;;;5007995;28;20102;-73
2023/01/27 09:56:09;;;;;;;19.27;6.15;;;;;;;;;;5015187;28;20053;-74
2023/01/27 09:58:54;;;;;;;12.07;5.78;;;;;;;;;;5018693;28;20057;-73
2023/01/27 10:01:56;;;;;;;16.27;6.27;;;;;;;;;;5013532;28;20049;-73
2023/01/27 10:04:44;;;;;;;23.35;5.40;;;;;;;;;;5017066;28;20310;-73
2023/01/27 10:07:21;;;;;;;15.00;6.13;;;;;;;;;;5005771;28;20057;-73
2023/01/27 10:10:15;;;;;;;11.35;4.35;;;;;;;;;;5018452;28;20049;-74
2023/01/27 10:13:04;;;;;;;8.57;3.90;;;;;;;;;;5020651;28;20057;-74
2023/01/27 10:15:45;;;;;;;9.20;3.42;;;;;;;;;;5011132;28;20432;-74
2023/01/27 10:18:20;;;;;;;11.27;3.65;;;;;;;;;;5010167;28;20054;-72
2023/01/27 10:21:08;;;;;;;7.70;3.47;;;;;;;;;;5013269;28;20110;-75
2023/01/27 10:24:04;;;;;;;11.90;3.70;;;;;;;;;;5014696;28;20057;-74
2023/01/27 10:26:35;;;;;;;7.25;3.53;;;;;;;;;;5008086;28;20042;-75
2023/01/27 10:29:16;;;;;;;16.08;3.42;;;;;;;;;;5020819;28;20071;-75
2023/01/27 10:32:12;;;;;;;4.95;2.80;;;;;;;;;;5020879;28;20529;-74
2023/01/27 10:34:57;;;;;;;;;;;;;;;;;;4973261;28;20152;-71
2023/01/27 10:37:42;;;;;;;8.70;2.65;;;;;;;;;;5023137;28;20622;-75
2023/01/27 10:40:39;;;;;;;3.70;2.30;;;;;;;;;;5018989;28;20051;-75
2023/01/27 10:43:37;;;;;;;6.30;2.30;;;;;;;;;;5016334;28;20120;-73
2023/01/27 10:46:06;;;;;;;8.00;3.70;;;;;;;;;;4988196;28;20547;-74
2023/01/27 10:48:40;;;;;;;9.32;4.50;;;;;;;;;;4995117;28;20068;-75
2023/01/27 10:51:15;;;;;;;8.82;4.28;;;;;;;;;;5019056;28;20041;-76
2023/01/27 10:53:47;;;;;;;11.73;4.57;;;;;;;;;;5025658;28;20129;-76
2023/01/27 10:56:31;;;;;;;18.15;5.15;;;;;;;;;;5015319;28;20041;-76
2023/01/27 10:59:10;;;;;;;15.25;5.65;;;;;;;;;;5012672;28;20124;-76
2023/01/27 11:01:45;;;;;;;8.20;4.50;;;;;;;;;;5023103;28;20049;-74
2023/01/27 11:04:35;;;;;;;9.63;3.90;;;;;;;;;;4990767;28;20053;-74
2023/01/27 11:07:02;;;;;;;6.38;2.70;;;;;;;;;;5014802;28;20183;-76
2023/01/27 11:09:36;;;;;;;9.77;3.20;;;;;;;;;;5019823;28;20042;-74
2023/01/27 11:12:07;;;;;;;5.55;2.20;;;;;;;;;;5019681;28;20057;-74
2023/01/27 11:14:48;;;;;;;3.38;1.70;;;;;;;;;;5021574;28;20836;-77
2023/01/27 11:17:35;;;;;;;5.63;1.92;;;;;;;;;;5021800;28;20045;-74
2023/01/27 11:20:27;;;;;;;4.60;2.13;;;;;;;;;;5018682;28;20421;-75
2023/01/27 11:23:11;;;;;;;5.60;1.98;;;;;;;;;;5019239;28;20054;-74
2023/01/27 11:25:47;;;;;;;;;;;;;;;;;;5020538;28;20403;-73
2023/01/27 11:28:23;;;;;;;3.35;1.75;;;;;;;;;;5024058;28;20537;-73
2023/01/27 11:31:05;;;;;;;3.45;1.50;;;;;;;;;;5016659;28;20546;-75
2023/01/27 11:33:48;;;;;;;7.88;1.55;;;;;;;;;;5018936;28;20087;-70
2023/01/27 11:36:14;;;;;;;7.40;1.63;;;;;;;;;;5021397;28;20122;-71
2023/01/27 11:38:40;;;;;;;2.20;1.50;;;;;;;;;;5018409;28;20042;-73
2023/01/27 11:41:06;;;;;;;3.95;1.90;;;;;;;;;;5012338;28;20057;-71
2023/01/27 11:43:33;;;;;;;4.97;1.42;;;;;;;;;;5019002;28;20041;-71
2023/01/27 11:46:03;;;;;;;4.80;1.50;;;;;;;;;;5021516;28;20204;-74
2023/01/27 11:48:39;;;;;;;4.03;1.80;;;;;;;;;;5021332;28;20115;-73
2023/01/27 11:51:25;;;;;;;3.15;1.92;;;;;;;;;;5018512;28;20423;-74
2023/01/27 11:54:08;;;;;;;5.60;1.50;;;;;;;;;;5015803;28;20053;-74
2023/01/27 11:56:36;;;;;;;3.03;1.63;;;;;;;;;;5011831;28;20168;-75
2023/01/27 11:59:09;;;;;;;6.60;1.50;;;;;;;;;;5021687;28;20041;-75
2023/01/27 12:01:51;;;;;;;5.63;1.55;;;;;;;;;;5016286;28;20057;-75
2023/01/27 12:04:24;;;;;;;4.45;1.40;;;;;;;;;;5016998;28;20488;-75
2023/01/27 12:07:01;;;;;;;3.85;1.73;;;;;;;;;;5020717;28;20053;-74
2023/01/27 12:09:38;;;;;;;4.72;1.77;;;;;;;;;;5018738;28;20037;-76
2023/01/27 12:12:23;;;;;;;3.45;1.58;;;;;;;;;;5019896;28;20053;-77
2023/01/27 12:14:55;;;;;;;7.55;1.42;;;;;;;;;;5023295;28;20061;-74
2023/01/27 12:17:27;;;;;;;6.53;1.27;;;;;;;;;;5024371;28;20456;-75
2023/01/27 12:19:56;;;;;;;2.72;1.10;;;;;;;;;;5023824;28;20107;-75
2023/01/27 12:22:27;;;;;;;2.40;1.30;;;;;;;;;;5000206;28;20049;-75
2023/01/27 12:24:59;;;;;;;3.65;1.75;;;;;;;;;;5025205;28;20076;-77
2023/01/27 12:27:28;;;;;;;4.05;2.33;;;;;;;;;;5013804;28;20053;-74
2023/01/27 12:30:01;;;;;;;7.75;3.83;;;;;;;;;;5015202;28;20050;-76
2023/01/27 12:32:39;;;;;;;7.20;2.70;;;;;;;;;;4992057;28;20052;-76
2023/01/27 12:35:06;;;;;;;6.88;3.20;;;;;;;;;;5013577;28;20435;-75
2023/01/27 12:37:36;;;;;;;10.82;3.28;;;;;;;;;;4998389;28;20103;-78
2023/01/27 12:40:15;;;;;;;11.63;4.40;;;;;;;;;;5017182;28;20136;-76
2023/01/27 12:42:50;;;;;;;13.27;5.13;;;;;;;;;;5011256;28;20053;-75
2023/01/27 12:45:19;;;;;;;9.65;4.30;;;;;;;;;;5014519;28;20056;-75
2023/01/27 12:47:54;;;;;;;10.05;4.50;;;;;;;;;;5014396;28;20041;-75
2023/01/27 12:50:23;;;;;;;15.52;4.03;;;;;;;;;;5013546;28;20053;-74
2023/01/27 12:53:14;;;;;;;9.40;3.88;;;;;;;;;;5013991;28;20444;-75
2023/01/27 12:55:48;;;;;;;6.65;3.10;;;;;;;;;;5008147;28;20151;-77
2023/01/27 12:58:36;;;;;;;11.98;3.50;;;;;;;;;;5022758;28;20041;-76
2023/01/27 13:01:36;;;;;;;9.13;3.55;;;;;;;;;;5025551;28;20072;-75
2023/01/27 13:04:08;;;;;;;6.50;3.42;;;;;;;;;;5020565;28;20065;-75
2023/01/27 13:06:50;;;;;;;8.95;2.88;;;;;;;;;;5003226;28;20061;-75
2023/01/27 13:09:32;;;;;;;10.23;2.78;;;;;;;;;;5029631;28;20084;-77
2023/01/27 13:12:03;;;;;;;6.60;2.88;;;;;;;;;;5020887;28;20077;-76
2023/01/27 13:14:34;;;;;;;5.03;3.00;;;;;;;;;;5025224;28;20052;-75
2023/01/27 13:17:01;;;;;;;9.73;3.03;;;;;;;;;;5025231;28;20552;-76
2023/01/27 13:19:36;;;;;;;4.95;2.67;;;;;;;;;;5023679;28;20056;-76
2023/01/27 13:22:03;;;;;;;6.45;2.78;;;;;;;;;;5022161;28;20064;-75
2023/01/27 13:24:36;;;;;;;4.60;2.80;;;;;;;;;;5024616;28;20069;-75
2023/01/27 13:27:07;;;;;;;5.78;3.17;;;;;;;;;;5031107;28;20071;-76
2023/01/27 13:29:34;;;;;;;6.40;2.92;;;;;;;;;;5025410;28;20136;-76
2023/01/27 13:32:05;;;;;;;8.38;2.58;;;;;;;;;;5006503;28;20045;-78
2023/01/27 13:35:10;;;;;;;4.25;2.10;;;;;;;;;;5024986;28;20073;-72
2023/01/27 13:37:45;;;;;;;6.97;2.42;;;;;;;;;;4952224;28;20063;-76
2023/01/27 13:40:42;;;;;;;5.95;2.83;;;;;;;;;;4940709;28;20039;-76
2023/01/27 13:43:11;;;;;;;7.15;2.08;;;;;;;;;;4953431;28;20172;-76
2023/01/27 13:45:43;;;;;;;4.22;2.35;;;;;;;;;;4923583;29;20058;-74
2023/01/27 13:48:28;;;;;;;5.18;2.90;;;;;;;;;;4951600;28;20075;-76
2023/01/27 13:50:57;;;;;;;7.25;2.70;;;;;;;;;;4942701;28;20043;-76
2023/01/27 13:53:23;;;;;;;3.72;2.28;;;;;;;;;;4941019;28;20543;-75
2023/01/27 13:56:10;;;;;;;3.63;1.75;;;;;;;;;;4944832;28;20051;-76
2023/01/27 13:58:57;;;;;;;4.93;2.17;;;;;;;;;;4943874;28;20090;-75
2023/01/27 14:01:27;;;;;;;6.63;1.73;;;;;;;;;;4950729;28;20171;-75
2023/01/27 14:04:17;;;;;;;5.65;3.20;;;;;;;;;;4945662;28;20051;-77
2023/01/27 14:07:04;;;;;;;3.30;1.70;;;;;;;;;;4941117;28;20998;-76
2023/01/27 14:09:36;;;;;;;13.07;2.75;;;;;;;;;;4939622;28;20859;-68
2023/01/27 14:12:11;;;;;;;3.05;2.00;;;;;;;;;;4944096;28;20058;-74
2023/01/27 14:14:42;;;;;;;4.20;1.80;;;;;;;;;;5024016;28;20188;-74
2023/01/27 14:17:33;;;;;;;4.00;1.60;;;;;;;;;;5022393;28;20779;-75
2023/01/27 14:20:05;;;;;;;3.97;2.25;;;;;;;;;;5019600;28;20106;-73
2023/01/27 14:22:45;;;;;;;3.92;1.65;;;;;;;;;;5012739;28;20875;-74
2023/01/27 14:25:16;;;;;;;2.40;1.38;;;;;;;;;;5011473;28;20041;-76
2023/01/27 14:27:51;;;;;;;2.38;1.30;;;;;;;;;;5016674;28;20620;-75
2023/01/27 14:30:28;;;;;;;5.95;1.60;;;;;;;;;;5003666;28;20054;-75
2023/01/27 14:33:04;;;;;;;5.95;1.63;;;;;;;;;;5016622;28;20092;-76
2023/01/27 14:35:49;;;;;;;2.70;1.30;;;;;;;;;;5023751;28;20049;-74
2023/01/27 14:38:26;;;;;;;9.57;1.65;;;;;;;;;;5004127;28;20061;-77
2023/01/27 14:41:11;;;;;;;2.38;1.55;;;;;;;;;;5012464;28;20046;-75
2023/01/27 14:44:03;;;;;;;4.43;1.60;;;;;;;;;;5021361;28;20053;-75
2023/01/27 14:46:46;;;;;;;3.30;1.60;;;;;;;;;;5015760;28;20049;-73
2023/01/27 14:49:25;;;;;;;3.13;1.30;;;;;;;;;;5017332;28;20053;-73
2023/01/27 14:51:54;;;;;;;6.00;1.40;;;;;;;;;;5019362;28;20118;-76
2023/01/27 14:54:59;;;;;;;3.55;1.50;;;;;;;;;;5022910;28;20537;-74
2023/01/27 14:57:42;;;;;;;3.58;1.60;;;;;;;;;;5018102;28;20048;-76
2023/01/27 15:00:43;;;;;;;3.03;1.90;;;;;;;;;;5025507;28;20067;-75
2023/01/27 15:03:35;;;;;;;3.78;1.58;;;;;;;;;;4921228;29;20142;-76
2023/01/27 15:06:23;;;;;;;2.42;1.40;;;;;;;;;;4929206;29;20149;-76
2023/01/27 15:08:59;;;;;;;1.70;1.20;;;;;;;;;;4929486;29;20814;-75
2023/01/27 15:11:42;;;;;;;4.25;1.45;;;;;;;;;;4923826;29;20098;-74
2023/01/27 15:14:35;;;;;;;3.63;1.30;;;;;;;;;;4920472;29;20297;-73
2023/01/27 15:17:27;;;;;;;6.55;1.30;;;;;;;;;;4915454;29;20414;-73
2023/01/27 15:20:18;;;;;;;4.18;1.40;;;;;;;;;;4916568;29;20048;-76
2023/01/27 15:23:13;;;;;;;2.20;1.40;;;;;;;;;;4914464;29;20055;-79
2023/01/27 15:25:46;;;;;;;3.55;1.50;;;;;;;;;;4918912;29;20158;-75
2023/01/27 15:28:15;;;;;;;2.40;1.30;;;;;;;;;;4915541;29;20172;-74
2023/01/27 15:31:13;;;;;;;3.10;1.20;;;;;;;;;;4916817;29;20939;-74
2023/01/27 15:34:03;;;;;;;6.28;1.35;;;;;;;;;;4915957;29;20059;-76
2023/01/27 15:36:36;;;;;;;2.90;1.33;;;;;;;;;;4912577;29;20060;-77